createdAt,value
2023-04-19T00:01:18.662Z,69.10
2023-04-19T00:03:46.318Z,69.10
2023-04-19T00:06:15.416Z,69.00
2023-04-19T00:08:43.913Z,69.20
2023-04-19T00:11:11.610Z,69.50
2023-04-19T00:13:39.133Z,69.10
2023-04-19T00:16:07.327Z,69.00
2023-04-19T00:18:34.868Z,69.20
2023-04-19T00:21:03.120Z,69.30
2023-04-19T00:23:30.874Z,69.00
2023-04-19T00:25:58.355Z,69.10
2023-04-19T00:28:26.477Z,69.10
2023-04-19T00:30:53.992Z,69.10
2023-04-19T00:33:21.514Z,69.30
2023-04-19T00:35:49.011Z,69.10
2023-04-19T00:38:16.558Z,69.10
2023-04-19T00:40:44.152Z,69.10
2023-04-19T00:43:11.714Z,69.20
2023-04-19T00:45:39.316Z,69.00
2023-04-19T00:48:07.027Z,69.10
2023-04-19T00:50:36.305Z,69.00
2023-04-19T00:53:03.870Z,69.00
2023-04-19T00:55:31.562Z,69.00
2023-04-19T00:57:59.960Z,69.10
2023-04-19T01:00:27.516Z,68.90
2023-04-19T01:02:56.065Z,69.10
2023-04-19T01:05:23.861Z,69.10
2023-04-19T01:07:51.749Z,69.00
2023-04-19T01:10:19.409Z,69.10
2023-04-19T01:12:46.912Z,69.10
2023-04-19T01:15:14.426Z,69.20
2023-04-19T01:17:42.574Z,69.00
2023-04-19T01:20:10.908Z,69.10
2023-04-19T01:22:38.458Z,69.10
2023-04-19T01:25:07.450Z,69.00
2023-04-19T01:27:35.020Z,69.00
2023-04-19T01:30:02.771Z,69.10
2023-04-19T01:32:30.368Z,69.10
2023-04-19T01:35:00.776Z,69.20
2023-04-19T01:37:28.259Z,69.20
2023-04-19T01:39:55.794Z,69.20
2023-04-19T01:42:23.406Z,69.30
2023-04-19T01:44:50.963Z,69.30
2023-04-19T01:47:18.485Z,69.30
2023-04-19T01:49:46.043Z,69.50
2023-04-19T01:52:13.531Z,69.50
2023-04-19T01:54:41.087Z,69.50
2023-04-19T01:57:08.680Z,70.40
2023-04-19T01:59:36.142Z,70.60
2023-04-19T02:02:06.842Z,70.60
2023-04-19T02:04:35.046Z,70.60
2023-04-19T02:07:02.583Z,70.60
2023-04-19T02:09:30.116Z,70.60
2023-04-19T02:11:57.964Z,70.70
2023-04-19T02:14:25.483Z,70.80
2023-04-19T02:16:53.100Z,70.80
2023-04-19T02:19:20.887Z,70.70
2023-04-19T02:21:48.520Z,70.70
2023-04-19T02:24:16.219Z,70.70
2023-04-19T02:26:43.859Z,70.60
2023-04-19T02:29:11.423Z,70.70
2023-04-19T02:31:39.019Z,70.80
2023-04-19T02:34:06.583Z,70.70
2023-04-19T02:36:34.097Z,70.90
2023-04-19T02:39:01.679Z,71.00
2023-04-19T02:41:29.205Z,70.80
2023-04-19T02:43:56.876Z,71.00
2023-04-19T02:46:24.440Z,71.00
2023-04-19T02:48:51.961Z,70.90
2023-04-19T02:51:19.511Z,71.00
2023-04-19T02:53:47.034Z,71.10
2023-04-19T02:56:14.593Z,71.00
2023-04-19T02:58:42.087Z,71.10
2023-04-19T03:01:10.287Z,71.10
2023-04-19T03:03:37.881Z,71.20
2023-04-19T03:06:05.637Z,71.30
2023-04-19T03:08:33.310Z,71.20
2023-04-19T03:11:00.928Z,71.30
2023-04-19T03:13:28.401Z,71.20
2023-04-19T03:15:56.129Z,71.30
2023-04-19T03:18:23.800Z,71.40
2023-04-19T03:20:51.363Z,71.40
2023-04-19T03:23:18.836Z,71.40
2023-04-19T03:25:46.754Z,71.50
2023-04-19T03:28:15.051Z,71.60
2023-04-19T03:30:42.734Z,71.60
2023-04-19T03:33:10.354Z,71.70
2023-04-19T03:35:40.872Z,71.90
2023-04-19T03:38:08.386Z,71.80
2023-04-19T03:40:38.224Z,71.80
2023-04-19T03:43:05.778Z,71.80
2023-04-19T03:45:33.282Z,72.00
2023-04-19T03:48:02.813Z,72.10
2023-04-19T03:50:30.811Z,71.90
2023-04-19T03:52:58.480Z,72.00
2023-04-19T03:55:26.098Z,72.10
2023-04-19T03:57:53.577Z,72.30
2023-04-19T04:00:21.284Z,72.20
2023-04-19T04:02:49.031Z,72.30
2023-04-19T04:05:16.996Z,72.30
2023-04-19T04:07:44.580Z,72.30
2023-04-19T04:10:12.086Z,72.40
2023-04-19T04:12:39.621Z,72.30
2023-04-19T04:15:07.660Z,72.40
2023-04-19T04:17:35.206Z,72.40
2023-04-19T04:20:03.237Z,72.50
2023-04-19T04:22:30.965Z,72.50
2023-04-19T04:24:58.421Z,72.50
2023-04-19T04:27:26.004Z,72.60
2023-04-19T04:29:53.510Z,72.70
2023-04-19T04:32:23.668Z,72.60
2023-04-19T04:34:51.556Z,72.80
2023-04-19T04:37:19.080Z,72.80
2023-04-19T04:39:46.630Z,72.70
2023-04-19T04:42:14.175Z,72.80
2023-04-19T04:44:42.394Z,72.90
2023-04-19T04:47:09.907Z,72.80
2023-04-19T04:49:37.803Z,72.80
2023-04-19T04:52:06.776Z,72.90
2023-04-19T04:54:34.398Z,73.00
2023-04-19T04:57:03.083Z,73.00
2023-04-19T04:59:30.622Z,72.90
2023-04-19T05:01:58.216Z,73.00
2023-04-19T05:04:25.851Z,73.20
2023-04-19T05:06:53.366Z,73.20
2023-04-19T05:09:20.913Z,73.30
2023-04-19T05:11:48.449Z,73.10
2023-04-19T05:14:16.246Z,73.20
2023-04-19T05:16:43.974Z,73.50
2023-04-19T05:19:11.810Z,73.40
2023-04-19T05:21:39.499Z,73.10
2023-04-19T05:24:07.292Z,73.70
2023-04-19T05:26:34.787Z,73.80
2023-04-19T05:29:02.237Z,73.80
2023-04-19T05:31:29.813Z,73.90
2023-04-19T05:33:57.384Z,73.90
2023-04-19T05:36:24.898Z,74.00
2023-04-19T05:38:52.387Z,74.00
2023-04-19T05:41:21.365Z,74.20
2023-04-19T05:43:48.987Z,74.10
2023-04-19T05:46:16.702Z,74.20
2023-04-19T05:48:44.257Z,74.40
2023-04-19T05:51:11.797Z,74.60
2023-04-19T05:53:39.389Z,74.60
2023-04-19T05:56:07.121Z,74.60
2023-04-19T05:58:34.652Z,74.80
2023-04-19T06:01:03.137Z,74.90
2023-04-19T06:03:32.334Z,75.10
2023-04-19T06:06:00.434Z,75.20
2023-04-19T06:08:28.156Z,75.40
2023-04-19T06:11:02.100Z,75.50
2023-04-19T06:13:32.644Z,75.80
2023-04-19T06:16:06.716Z,75.70
2023-04-19T06:18:34.553Z,75.80
2023-04-19T06:21:02.050Z,76.00
2023-04-19T06:23:29.581Z,76.10
2023-04-19T06:25:57.108Z,76.10
2023-04-19T06:28:24.652Z,76.10
2023-04-19T06:30:52.165Z,76.10
2023-04-19T06:33:19.749Z,76.00
2023-04-19T06:35:47.320Z,76.10
2023-04-19T06:38:14.892Z,76.10
2023-04-19T06:40:42.602Z,76.00
2023-04-19T06:43:10.122Z,76.10
2023-04-19T06:45:37.766Z,76.30
2023-04-19T06:48:05.731Z,76.10
2023-04-19T06:50:33.344Z,76.30
2023-04-19T06:53:01.824Z,76.10
2023-04-19T06:55:31.068Z,76.20
2023-04-19T06:57:58.776Z,76.10
2023-04-19T07:00:26.619Z,76.30
2023-04-19T07:02:54.425Z,76.30
2023-04-19T07:05:22.152Z,76.20
2023-04-19T07:07:49.704Z,76.30
2023-04-19T07:10:17.758Z,76.30
2023-04-19T07:12:45.433Z,76.30
2023-04-19T07:15:13.192Z,76.30
2023-04-19T07:17:41.014Z,76.20
2023-04-19T07:20:09.398Z,76.20
2023-04-19T07:22:37.098Z,76.50
2023-04-19T07:25:05.024Z,76.40
2023-04-19T07:27:32.551Z,76.40
2023-04-19T07:30:03.063Z,76.60
2023-04-19T07:32:31.890Z,76.50
2023-04-19T07:34:59.470Z,76.60
2023-04-19T07:37:26.970Z,76.60
2023-04-19T07:39:54.487Z,76.70
2023-04-19T07:42:22.103Z,76.70
2023-04-19T07:44:49.629Z,76.90
2023-04-19T07:47:17.222Z,76.80
2023-04-19T07:49:44.782Z,76.70
2023-04-19T07:52:12.306Z,76.80
2023-04-19T07:54:39.954Z,76.90
2023-04-19T07:57:19.878Z,76.80
2023-04-19T07:59:47.420Z,76.90
2023-04-19T08:02:16.791Z,76.90
2023-04-19T08:04:48.654Z,76.80
2023-04-19T08:07:16.733Z,76.90
2023-04-19T08:09:44.263Z,76.80
2023-04-19T08:12:17.157Z,76.80
2023-04-19T08:15:02.707Z,76.80
2023-04-19T08:17:41.847Z,77.00
2023-04-19T08:20:14.822Z,76.90
2023-04-19T08:22:42.481Z,76.90
2023-04-19T08:25:10.505Z,76.90
2023-04-19T08:27:38.079Z,76.80
2023-04-19T08:30:08.098Z,76.80
2023-04-19T08:32:35.601Z,76.80
2023-04-19T08:35:03.963Z,77.00
2023-04-19T08:37:31.596Z,77.10
2023-04-19T08:39:59.090Z,77.10
2023-04-19T08:42:35.478Z,77.00
2023-04-19T08:50:24.117Z,76.20
2023-04-19T08:53:05.147Z,75.30
2023-04-19T08:55:59.223Z,75.50
2023-04-19T09:01:12.823Z,75.30
2023-04-19T09:04:02.666Z,75.90
2023-04-19T09:06:39.319Z,75.30
2023-04-19T09:12:00.573Z,75.60
2023-04-19T09:14:29.339Z,75.60
2023-04-19T09:17:17.293Z,75.60
2023-04-19T09:19:49.932Z,75.60
2023-04-19T09:22:18.607Z,75.60
2023-04-19T09:27:25.891Z,75.80
2023-04-19T09:29:55.209Z,75.90
2023-04-19T09:32:23.495Z,75.80
2023-04-19T09:34:55.240Z,75.90
2023-04-19T09:37:50.969Z,75.80
2023-04-19T09:40:25.058Z,75.70
2023-04-19T09:48:09.968Z,75.70
2023-04-19T09:51:14.440Z,75.40
2023-04-19T09:53:43.416Z,75.30
2023-04-19T09:56:13.113Z,75.30
2023-04-19T09:58:49.988Z,75.20
2023-04-19T10:01:22.351Z,75.30
2023-04-19T10:03:51.583Z,75.20
2023-04-19T10:08:53.857Z,75.10
2023-04-19T10:11:27.137Z,75.10
2023-04-19T10:13:59.580Z,75.10
2023-04-19T10:16:27.735Z,75.10
2023-04-19T10:18:56.620Z,75.40
2023-04-19T10:21:24.771Z,75.20
2023-04-19T10:23:52.580Z,75.10
2023-04-19T10:26:20.087Z,75.00
2023-04-19T10:28:49.333Z,75.10
2023-04-19T10:31:24.050Z,75.20
2023-04-19T10:33:52.060Z,75.00
2023-04-19T10:36:22.760Z,75.80
2023-04-19T10:38:55.951Z,74.90
2023-04-19T10:41:23.862Z,75.10
2023-04-19T10:43:58.004Z,75.10
2023-04-19T10:46:26.413Z,74.60
2023-04-19T10:49:08.135Z,74.70
2023-04-19T10:51:47.863Z,74.20
2023-04-19T10:54:34.585Z,74.10
2023-04-19T10:57:07.010Z,73.80
2023-04-19T10:59:43.306Z,73.70
2023-04-19T11:02:23.234Z,73.80
2023-04-19T11:04:51.161Z,73.60
2023-04-19T11:07:20.522Z,74.00
2023-04-19T11:09:49.978Z,73.70
2023-04-19T11:12:19.998Z,73.40
2023-04-19T11:15:00.659Z,73.30
2023-04-19T11:17:32.285Z,73.80
2023-04-19T11:20:02.553Z,73.90
2023-04-19T11:22:37.043Z,74.00
2023-04-19T11:25:19.699Z,73.90
2023-04-19T11:27:52.549Z,73.70
2023-04-19T11:30:31.166Z,73.30
2023-04-19T11:32:58.860Z,73.30
2023-04-19T11:35:32.873Z,73.30
2023-04-19T11:38:00.837Z,72.60
2023-04-19T11:40:28.412Z,72.70
2023-04-19T11:43:00.905Z,72.90
2023-04-19T11:45:39.587Z,73.00
2023-04-19T11:48:17.946Z,72.80
2023-04-19T11:50:46.906Z,72.80
2023-04-19T11:53:22.284Z,72.80
2023-04-19T11:55:52.152Z,72.70
2023-04-19T11:58:36.339Z,72.40
2023-04-19T12:01:16.091Z,72.00
2023-04-19T12:03:52.352Z,71.80
2023-04-19T12:06:23.606Z,71.50
2023-04-19T12:08:52.458Z,71.90
2023-04-19T12:11:24.603Z,71.80
2023-04-19T12:14:10.177Z,71.50
2023-04-19T12:16:37.957Z,71.50
2023-04-19T12:19:20.685Z,71.00
2023-04-19T12:21:48.631Z,70.40
2023-04-19T12:24:17.495Z,71.20
2023-04-19T12:26:59.920Z,71.40
2023-04-19T12:29:28.620Z,71.30
2023-04-19T12:31:56.196Z,71.50
2023-04-19T12:34:23.740Z,71.70
2023-04-19T12:36:51.496Z,71.60
2023-04-19T12:39:18.947Z,71.60
2023-04-19T12:41:49.026Z,71.30
2023-04-19T12:44:16.699Z,71.60
2023-04-19T12:46:44.270Z,71.20
2023-04-19T12:49:11.841Z,71.10
2023-04-19T12:51:39.413Z,71.20
2023-04-19T12:54:07.864Z,69.80
2023-04-19T12:56:36.054Z,70.30
2023-04-19T12:59:03.603Z,70.60
2023-04-19T13:01:32.495Z,70.70
2023-04-19T13:04:00.452Z,71.00
2023-04-19T13:06:28.168Z,71.10
2023-04-19T13:09:00.483Z,71.30
2023-04-19T13:11:29.159Z,71.40
2023-04-19T13:13:56.627Z,71.50
2023-04-19T13:16:24.280Z,71.50
2023-04-19T13:18:52.895Z,71.10
2023-04-19T13:21:20.520Z,71.30
2023-04-19T13:23:48.083Z,71.50
2023-04-19T13:26:16.615Z,71.20
2023-04-19T13:28:44.096Z,70.70
2023-04-19T13:31:11.881Z,70.70
2023-04-19T13:33:39.411Z,71.10
2023-04-19T13:36:07.412Z,71.10
2023-04-19T13:38:37.971Z,71.40
2023-04-19T13:41:05.646Z,71.30
2023-04-19T13:43:33.298Z,71.50
2023-04-19T13:46:00.984Z,71.60
2023-04-19T13:48:29.323Z,71.60
2023-04-19T13:50:57.675Z,71.50
2023-04-19T13:53:26.836Z,71.80
2023-04-19T13:55:54.765Z,71.90
2023-04-19T13:58:22.513Z,71.90
2023-04-19T14:00:50.094Z,71.70
2023-04-19T14:03:18.058Z,71.50
2023-04-19T14:05:45.802Z,71.50
2023-04-19T14:08:13.361Z,71.10
2023-04-19T14:10:41.030Z,71.30
2023-04-19T14:13:08.613Z,71.50
2023-04-19T14:15:36.146Z,71.50
2023-04-19T14:18:03.885Z,71.60
2023-04-19T14:20:31.664Z,71.70
2023-04-19T14:23:00.629Z,71.70
2023-04-19T14:25:28.236Z,71.30
2023-04-19T14:27:55.816Z,71.20
2023-04-19T14:30:26.260Z,71.60
2023-04-19T14:32:54.034Z,71.10
2023-04-19T14:35:21.928Z,71.70
2023-04-19T14:37:49.500Z,71.30
2023-04-19T14:40:18.279Z,71.30
2023-04-19T14:42:45.866Z,71.60
2023-04-19T14:45:13.457Z,71.40
2023-04-19T14:47:41.138Z,71.20
2023-04-19T14:50:08.990Z,71.80
2023-04-19T14:52:36.640Z,71.30
2023-04-19T14:55:04.507Z,71.90
2023-04-19T14:57:32.066Z,71.70
2023-04-19T15:00:01.358Z,71.80
2023-04-19T15:02:30.877Z,71.40
2023-04-19T15:04:58.774Z,71.50
2023-04-19T15:07:26.633Z,71.20
2023-04-19T15:09:54.175Z,70.20
2023-04-19T15:12:27.687Z,71.80
2023-04-19T15:14:55.221Z,71.30
2023-04-19T15:17:22.798Z,71.90
2023-04-19T15:19:50.389Z,72.10
2023-04-19T15:22:17.993Z,72.60
2023-04-19T15:24:45.626Z,73.00
2023-04-19T15:27:13.176Z,72.00
2023-04-19T15:29:41.575Z,71.90
2023-04-19T15:32:09.319Z,73.30
2023-04-19T15:34:36.920Z,73.30
2023-04-19T15:37:06.774Z,72.80
2023-04-19T15:39:34.319Z,72.90
2023-04-19T15:42:02.343Z,72.60
2023-04-19T15:44:30.371Z,72.30
2023-04-19T15:46:58.028Z,72.10
2023-04-19T15:49:25.689Z,72.50
2023-04-19T15:51:53.293Z,72.50
2023-04-19T15:54:22.591Z,72.70
2023-04-19T15:56:50.134Z,72.00
2023-04-19T15:59:18.212Z,72.50
2023-04-19T16:01:46.077Z,71.60
2023-04-19T16:04:13.963Z,72.60
2023-04-19T16:06:41.715Z,72.70
2023-04-19T16:09:09.425Z,72.70
2023-04-19T16:11:36.925Z,72.30
2023-04-19T16:14:04.506Z,72.50
2023-04-19T16:16:34.591Z,72.30
2023-04-19T16:19:02.226Z,72.90
2023-04-19T16:21:29.867Z,72.70
2023-04-19T16:23:57.429Z,73.00
2023-04-19T16:26:25.000Z,73.10
2023-04-19T16:28:52.637Z,73.00
2023-04-19T16:31:20.206Z,73.10
2023-04-19T16:33:47.717Z,73.50
2023-04-19T16:36:15.213Z,73.50
2023-04-19T16:38:42.807Z,72.60
2023-04-19T16:41:11.786Z,72.40
2023-04-19T16:43:39.376Z,73.10
2023-04-19T16:46:07.633Z,72.50
2023-04-19T16:48:35.261Z,72.70
2023-04-19T16:51:04.412Z,72.50
2023-04-19T16:53:32.456Z,72.20
2023-04-19T16:56:00.590Z,71.70
2023-04-19T16:58:28.190Z,71.60
2023-04-19T17:00:58.535Z,70.30
2023-04-19T17:03:26.897Z,70.40
2023-04-19T17:05:54.523Z,70.90
2023-04-19T17:08:22.532Z,70.70
2023-04-19T17:10:50.381Z,70.00
2023-04-19T17:13:17.925Z,70.60
2023-04-19T17:15:46.002Z,70.40
2023-04-19T17:18:13.756Z,70.20
2023-04-19T17:20:41.380Z,69.50
2023-04-19T17:23:08.885Z,69.90
2023-04-19T17:25:36.405Z,70.10
2023-04-19T17:28:04.171Z,70.20
2023-04-19T17:30:31.963Z,70.30
2023-04-19T17:32:59.562Z,69.60
2023-04-19T17:35:27.510Z,69.90
2023-04-19T17:37:55.160Z,70.00
2023-04-19T17:40:22.756Z,69.30
2023-04-19T17:42:50.452Z,69.50
2023-04-19T17:45:18.027Z,69.00
2023-04-19T17:47:45.628Z,68.30
2023-04-19T17:50:14.116Z,69.00
2023-04-19T17:52:41.673Z,68.20
2023-04-19T17:55:09.814Z,68.50
2023-04-19T17:57:40.815Z,65.90
2023-04-19T18:00:10.886Z,66.80
2023-04-19T18:02:38.871Z,66.10
2023-04-19T18:05:07.843Z,67.20
2023-04-19T18:07:38.525Z,68.10
2023-04-19T18:10:06.909Z,68.50
2023-04-19T18:12:34.496Z,68.20
2023-04-19T18:15:02.037Z,68.60
2023-04-19T18:17:30.419Z,68.30
2023-04-19T18:19:58.101Z,67.50
2023-04-19T18:22:25.705Z,67.60
2023-04-19T18:24:53.759Z,67.30
2023-04-19T18:27:21.328Z,67.70
2023-04-19T18:29:52.368Z,67.40
2023-04-19T18:32:22.005Z,67.90
2023-04-19T18:34:49.728Z,67.50
2023-04-19T18:37:17.928Z,67.80
2023-04-19T18:39:45.653Z,67.30
2023-04-19T18:42:13.303Z,67.10
2023-04-19T18:47:11.316Z,66.70
2023-04-19T18:49:38.846Z,66.70
2023-04-19T18:52:06.536Z,66.60
2023-04-19T18:54:34.209Z,66.50
2023-04-19T18:59:32.271Z,66.20
2023-04-19T19:01:59.950Z,66.10
2023-04-19T19:04:48.247Z,65.90
2023-04-19T19:07:33.951Z,65.70
2023-04-19T19:10:09.655Z,65.60
2023-04-19T19:12:44.314Z,65.60
2023-04-19T19:15:11.919Z,65.50
2023-04-19T19:17:39.554Z,65.70
2023-04-19T19:20:07.983Z,65.20
2023-04-19T19:22:35.540Z,65.20
2023-04-19T19:25:03.083Z,65.30
2023-04-19T19:27:30.959Z,64.90
2023-04-19T19:29:59.135Z,64.90
2023-04-19T19:32:26.852Z,64.60
2023-04-19T19:34:58.943Z,64.80
2023-04-19T19:37:29.531Z,64.70
2023-04-19T19:39:57.116Z,64.80
2023-04-19T19:42:25.332Z,64.60
2023-04-19T19:44:56.229Z,64.60
2023-04-19T19:47:27.710Z,64.40
2023-04-19T19:50:43.719Z,64.70
2023-04-19T19:52:43.724Z,64.50
2023-04-19T19:55:12.784Z,64.30
2023-04-19T20:00:36.628Z,64.20
2023-04-19T20:03:00.601Z,64.10
2023-04-19T20:05:28.980Z,64.00
2023-04-19T20:08:10.087Z,64.00
2023-04-19T20:10:39.525Z,64.30
2023-04-19T20:13:07.214Z,64.20
2023-04-19T20:15:36.762Z,64.00
2023-04-19T20:18:05.522Z,64.10
2023-04-19T20:20:33.204Z,63.70
2023-04-19T20:23:00.928Z,63.70
2023-04-19T20:25:28.622Z,63.70
2023-04-19T20:27:56.785Z,64.00
2023-04-19T20:30:24.560Z,63.90
2023-04-19T20:32:52.127Z,63.80
2023-04-19T20:35:19.836Z,64.00
2023-04-19T20:37:47.531Z,63.60
2023-04-19T20:40:16.416Z,63.70
2023-04-19T20:42:45.148Z,64.00
2023-04-19T20:45:14.568Z,63.70
2023-04-19T20:47:43.054Z,63.80
2023-04-19T20:50:11.514Z,64.00
2023-04-19T20:52:39.275Z,63.80
2023-04-19T20:55:08.045Z,63.90
2023-04-19T20:57:35.601Z,63.80
2023-04-19T21:00:04.267Z,63.80
2023-04-19T21:02:31.985Z,63.80
2023-04-19T21:04:59.787Z,64.00
2023-04-19T21:07:27.374Z,63.70
2023-04-19T21:09:54.936Z,64.00
2023-04-19T21:12:22.713Z,63.80
2023-04-19T21:14:52.799Z,63.60
2023-04-19T21:17:21.140Z,63.70
2023-04-19T21:19:48.769Z,63.90
2023-04-19T21:22:16.479Z,63.80
2023-04-19T21:24:43.998Z,63.70
2023-04-19T21:27:11.654Z,64.70
2023-04-19T21:29:39.234Z,63.90
2023-04-19T21:32:06.931Z,64.10
2023-04-19T21:34:35.007Z,63.80
2023-04-19T21:37:02.641Z,63.90
2023-04-19T21:39:30.124Z,64.00
2023-04-19T21:41:57.796Z,63.80
2023-04-19T21:44:25.387Z,63.80
2023-04-19T21:46:53.135Z,63.90
2023-04-19T21:49:20.841Z,63.80
2023-04-19T21:51:48.417Z,63.80
2023-04-19T21:54:26.426Z,63.70
2023-04-19T21:56:58.635Z,63.80
2023-04-19T21:59:26.423Z,63.90
2023-04-19T22:01:54.296Z,64.20
2023-04-19T22:04:21.938Z,64.10
2023-04-19T22:06:49.788Z,64.00
2023-04-19T22:09:17.518Z,64.10
2023-04-19T22:11:46.062Z,64.00
2023-04-19T22:14:13.599Z,64.30
2023-04-19T22:16:42.448Z,64.20
2023-04-19T22:19:11.047Z,64.10
2023-04-19T22:21:38.562Z,64.30
2023-04-19T22:24:06.518Z,64.30
2023-04-19T22:26:34.697Z,64.30
2023-04-19T22:29:02.518Z,64.30
2023-04-19T22:31:30.117Z,64.00
2023-04-19T22:33:57.712Z,64.20
2023-04-19T22:36:25.239Z,64.10
2023-04-19T22:38:52.712Z,64.50
2023-04-19T22:41:20.240Z,64.40
2023-04-19T22:43:47.697Z,64.30
2023-04-19T22:46:15.264Z,64.10
2023-04-19T22:48:42.858Z,64.10
2023-04-19T22:51:11.003Z,64.40
2023-04-19T22:53:38.560Z,64.30
2023-04-19T22:56:06.368Z,64.30
2023-04-19T22:58:33.849Z,64.10
2023-04-19T23:01:02.606Z,64.00
2023-04-19T23:03:30.301Z,63.90
2023-04-19T23:05:57.815Z,64.00
2023-04-19T23:08:29.035Z,63.80
2023-04-19T23:10:56.615Z,63.90
2023-04-19T23:13:24.120Z,63.60
2023-04-19T23:15:51.659Z,63.80
2023-04-19T23:18:19.215Z,63.60
2023-04-19T23:20:46.884Z,64.30
2023-04-19T23:23:14.550Z,64.00
2023-04-19T23:25:42.471Z,63.70
2023-04-19T23:28:11.974Z,63.40
2023-04-19T23:30:40.231Z,63.80
2023-04-19T23:33:07.736Z,64.00
2023-04-19T23:35:35.205Z,63.60
2023-04-19T23:38:02.716Z,63.70
2023-04-19T23:40:30.479Z,63.70
2023-04-19T23:42:58.039Z,63.40
2023-04-19T23:45:25.685Z,63.50
2023-04-19T23:47:53.268Z,63.50
2023-04-19T23:50:20.938Z,63.50
2023-04-19T23:52:48.482Z,63.60
2023-04-19T23:55:16.111Z,63.50
2023-04-19T23:57:43.714Z,63.50
